Time;durP1;ratioP1;P1;durP2;ratioP2;P2;SDS_P1;SDS_P2;PMS_P1;PMS_P2;Temp;Humidity;BMP_temperature;BMP_pressure;BME280_temperature;BME280_humidity;BME280_pressure;Samples;Min_cycle;Max_cycle;Signal;HPM_P1;HPM_P2
2022/11/28 00:00:55;;;;;;;;;12.00;9.75;;;;;20.77;58.83;100335.09;5020096;28;45279;-61
2022/11/28 00:03:21;;;;;;;;;15.75;11.75;;;;;20.77;59.27;100314.75;5020042;28;45250;-61
2022/11/28 00:05:47;;;;;;;;;15.25;12.00;;;;;20.77;59.09;100314.75;5002680;28;45304;-61
2022/11/28 00:08:12;;;;;;;;;12.25;10.50;;;;;20.78;59.07;100302.34;5019667;28;45342;-61
2022/11/28 00:10:39;;;;;;;;;10.50;10.00;;;;;20.77;59.18;100305.94;5019188;28;73629;-60
2022/11/28 00:13:04;;;;;;;;;15.25;13.00;;;;;20.77;58.90;100297.97;5019876;28;45313;-60
2022/11/28 00:15:30;;;;;;;;;14.00;9.75;;;;;20.76;58.88;100290.91;5019681;28;57578;-61
2022/11/28 00:17:55;;;;;;;;;14.00;13.00;;;;;20.75;59.14;100287.41;5018100;28;60418;-61
2022/11/28 00:20:20;;;;;;;;;14.00;9.75;;;;;20.76;58.87;100290.91;5018992;28;70477;-60
2022/11/28 00:22:46;;;;;;;;;13.00;12.00;;;;;20.76;58.94;100293.56;5019166;28;54494;-61
2022/11/28 00:25:11;;;;;;;;;12.75;11.00;;;;;20.76;59.23;100299.75;5019452;28;66081;-60
2022/11/28 00:27:36;;;;;;;;;15.50;11.50;;;;;20.75;59.00;100295.34;5019412;28;54794;-61
2022/11/28 00:30:02;;;;;;;;;9.00;9.00;;;;;20.75;58.83;100283.88;5018470;28;45307;-61
2022/11/28 00:32:28;;;;;;;;;15.00;10.00;;;;;20.76;59.16;100289.16;5003533;28;45239;-61
2022/11/28 00:34:53;;;;;;;;;11.50;9.25;;;;;20.76;59.22;100289.16;5023619;28;45375;-61
2022/11/28 00:37:18;;;;;;;;;11.25;11.25;;;;;20.75;59.02;100290.06;5023248;28;45196;-62
2022/11/28 00:39:44;;;;;;;;;13.25;10.25;;;;;20.76;59.16;100286.50;5005075;28;57059;-61
2022/11/28 00:42:09;;;;;;;;;12.00;10.00;;;;;20.75;58.80;100282.09;5004794;28;60065;-61
2022/11/28 00:44:35;;;;;;;;;13.75;10.00;;;;;20.76;59.12;100286.50;5021700;28;54990;-60
2022/11/28 00:47:01;;;;;;;;;9.00;7.25;;;;;20.75;58.88;100282.09;5021866;28;45255;-61
2022/11/28 00:49:26;;;;;;;;;12.25;9.00;;;;;20.75;59.13;100266.19;5021912;28;46027;-61
2022/11/28 00:51:52;;;;;;;;;10.50;9.50;;;;;20.76;58.98;100270.59;5023021;28;45369;-60
2022/11/28 00:54:17;;;;;;;;;18.25;11.00;;;;;20.76;58.78;100275.91;5022062;28;45382;-61
2022/11/28 00:56:42;;;;;;;;;11.75;10.75;;;;;20.75;58.85;100276.78;5022950;28;45496;-62
2022/11/28 00:59:08;;;;;;;;;11.75;9.00;;;;;20.75;59.18;100279.44;5021834;28;45276;-60
2022/11/28 01:01:35;;;;;;;;;12.75;10.00;;;;;20.76;58.92;100280.31;5021355;28;45308;-60
2022/11/28 01:04:02;;;;;;;;;10.00;9.00;;;;;20.76;59.02;100281.19;5021767;28;45263;-60
2022/11/28 01:06:39;;;;;;;;;10.75;10.50;;;;;20.76;59.08;100275.00;5021453;28;45272;-60
2022/11/28 01:09:12;;;;;;;;;10.25;10.25;;;;;20.75;59.03;100270.63;4981039;28;45747;-60
2022/11/28 01:11:39;;;;;;;;;14.75;13.00;;;;;20.75;58.65;100266.19;5021781;28;45271;-61
2022/11/28 01:14:04;;;;;;;;;12.00;10.00;;;;;20.75;58.78;100263.53;5023118;28;45260;-60
2022/11/28 01:16:30;;;;;;;;;11.50;11.00;;;;;20.77;59.00;100268.81;5021497;28;45176;-61
2022/11/28 01:18:55;;;;;;;;;11.50;10.50;;;;;20.77;59.22;100276.75;5022558;28;45999;-61
2022/11/28 01:21:20;;;;;;;;;11.75;9.75;;;;;20.78;58.65;100274.03;5021953;28;64099;-62
2022/11/28 01:23:46;;;;;;;;;14.50;10.25;;;;;20.78;59.03;100275.81;5004843;28;45468;-62
2022/11/28 01:26:16;;;;;;;;;12.00;9.00;;;;;20.77;58.75;100274.97;5022551;28;45560;-62
2022/11/28 01:28:42;;;;;;;;;9.75;9.25;;;;;20.77;58.74;100277.63;5004744;28;49426;-62
2022/11/28 01:31:08;;;;;;;;;9.50;9.00;;;;;20.77;58.55;100269.66;5022332;28;45158;-62
2022/11/28 01:33:33;;;;;;;;;9.75;7.75;;;;;20.77;59.04;100277.63;5022355;28;45203;-62
2022/11/28 01:35:59;;;;;;;;;10.00;8.75;;;;;20.77;58.66;100279.41;5022292;28;45225;-61
2022/11/28 01:38:24;;;;;;;;;13.25;10.00;;;;;20.79;58.94;100285.50;5020989;28;46296;-62
2022/11/28 01:40:50;;;;;;;;;11.50;8.00;;;;;20.80;58.80;100289.88;5022074;28;45288;-62
2022/11/28 01:43:15;;;;;;;;;11.00;8.75;;;;;20.82;58.64;100293.34;5020191;28;45248;-62
2022/11/28 01:45:41;;;;;;;;;9.50;9.00;;;;;20.82;58.34;100290.69;5022209;28;45470;-62
2022/11/28 01:48:07;;;;;;;;;13.00;10.50;;;;;20.82;58.56;100296.84;5020126;28;66371;-61
2022/11/28 01:50:32;;;;;;;;;12.75;8.50;;;;;20.82;58.64;100298.63;5004364;28;45470;-61
2022/11/28 01:53:00;;;;;;;;;7.25;7.25;;;;;20.82;58.63;100307.44;5020352;28;59359;-62
2022/11/28 01:55:27;;;;;;;;;8.25;8.25;;;;;20.83;58.54;100306.53;5022070;28;45415;-62
2022/11/28 01:57:53;;;;;;;;;9.00;8.00;;;;;20.83;58.78;100311.84;5021731;28;53365;-62
2022/11/28 02:00:18;;;;;;;;;9.00;9.00;;;;;20.83;58.58;100310.97;5020340;28;45379;-62
2022/11/28 02:02:49;;;;;;;;;10.75;9.25;;;;;20.84;58.79;100312.69;5022228;28;45423;-62
2022/11/28 02:05:16;;;;;;;;;7.75;6.00;;;;;20.83;58.57;100313.63;5020557;28;45386;-62
2022/11/28 02:07:42;;;;;;;;;10.00;8.00;;;;;20.83;58.99;100309.19;5021543;28;45366;-62
2022/11/28 02:10:08;;;;;;;;;11.50;8.00;;;;;20.83;58.59;100303.00;5021912;28;45268;-62
2022/11/28 02:13:01;;;;;;;;;10.00;10.00;;;;;20.82;58.58;100310.09;5020835;28;45294;-62
2022/11/28 02:15:39;;;;;;;;;13.00;7.75;;;;;20.83;58.68;100309.19;5020733;28;45331;-62
2022/11/28 02:18:21;;;;;;;;;9.25;7.75;;;;;20.83;58.60;100301.22;5021641;28;45866;-62
2022/11/28 02:21:08;;;;;;;;;9.25;7.00;;;;;20.83;58.50;100305.66;5020546;28;45335;-62
2022/11/28 02:24:01;;;;;;;;;8.25;6.75;;;;;20.81;58.71;100300.44;5020442;28;45386;-62
2022/11/28 02:27:03;;;;;;;;;7.50;7.00;;;;;20.82;58.71;100290.69;5020504;28;45671;-62
2022/11/28 02:29:32;;;;;;;;;10.25;7.50;;;;;20.83;58.63;100287.97;5020321;28;46241;-62
2022/11/28 02:32:29;;;;;;;;;8.25;8.25;;;;;20.82;58.33;100280.06;5021848;28;45331;-62
2022/11/28 02:35:25;;;;;;;;;12.25;7.75;;;;;20.82;58.45;100280.06;5020662;28;45443;-62
2022/11/28 02:38:02;;;;;;;;;9.50;7.25;;;;;20.82;58.88;100291.53;5003374;28;48136;-62
2022/11/28 02:40:47;;;;;;;;;7.25;7.00;;;;;20.83;58.84;100292.41;5020206;28;45550;-61
2022/11/28 02:43:19;;;;;;;;;9.25;9.00;;;;;20.83;58.80;100287.97;5020491;28;45389;-61
2022/11/28 02:45:55;;;;;;;;;13.00;8.75;;;;;20.85;58.34;100291.44;5004519;28;45265;-61
2022/11/28 02:48:37;;;;;;;;;9.25;9.25;;;;;20.84;58.60;100284.38;5020082;28;45339;-61
2022/11/28 02:51:12;;;;;;;;;10.00;8.00;;;;;20.84;58.25;100273.75;5020322;28;46282;-61
2022/11/28 02:53:37;;;;;;;;;8.75;7.25;;;;;20.84;58.18;100272.91;5021043;28;45329;-61
2022/11/28 02:56:03;;;;;;;;;8.75;7.00;;;;;20.83;58.48;100266.75;5019706;28;45242;-61
2022/11/28 02:58:28;;;;;;;;;8.00;7.00;;;;;20.84;58.56;100262.28;5020921;28;45504;-61
2022/11/28 03:00:54;;;;;;;;;8.00;7.50;;;;;20.84;58.58;100259.66;5019890;28;75660;-62
2022/11/28 03:03:37;;;;;;;;;6.75;6.75;;;;;20.83;58.53;100256.13;5018795;28;69665;-61
2022/11/28 03:06:32;;;;;;;;;9.50;8.25;;;;;20.83;58.17;100255.28;5021214;28;45411;-61
2022/11/28 03:09:00;;;;;;;;;7.50;7.50;;;;;20.83;58.38;100256.13;5016475;28;45294;-61
2022/11/28 03:11:56;;;;;;;;;6.75;6.75;;;;;20.83;58.33;100248.16;5019538;28;47140;-61
2022/11/28 03:15:06;;;;;;;;;8.25;7.25;;;;;20.83;58.31;100253.47;5019994;28;45425;-61
2022/11/28 03:17:55;;;;;;;;;9.00;7.75;;;;;20.84;58.18;100251.69;5019043;28;45339;-61
2022/11/28 03:20:32;;;;;;;;;8.00;7.00;;;;;20.82;58.50;100251.75;5018477;28;48070;-61
2022/11/28 03:23:06;;;;;;;;;9.00;7.00;;;;;20.81;58.41;100247.38;5002476;28;47772;-61
2022/11/28 03:26:04;;;;;;;;;8.25;7.00;;;;;20.83;58.53;100255.28;5020868;28;45265;-62
2022/11/28 03:28:34;;;;;;;;;8.50;7.00;;;;;20.83;58.46;100257.91;5019345;28;45471;-61
2022/11/28 03:31:02;;;;;;;;;8.25;7.50;;;;;20.83;58.60;100256.13;5003328;28;45434;-62
2022/11/28 03:33:34;;;;;;;;;6.00;6.00;;;;;20.82;58.29;100257.06;5019349;28;46400;-61
2022/11/28 03:36:27;;;;;;;;;8.25;8.25;;;;;20.84;58.15;100264.94;5019405;28;45229;-61
2022/11/28 03:38:59;;;;;;;;;8.25;7.00;;;;;20.83;58.33;100276.50;5019295;28;45367;-61
2022/11/28 03:41:28;;;;;;;;;6.50;6.00;;;;;20.83;58.54;100277.34;5019489;28;45420;-62
2022/11/28 03:43:54;;;;;;;;;6.25;5.00;;;;;20.83;58.18;100272.03;5018959;28;49720;-62
2022/11/28 03:46:21;;;;;;;;;8.50;8.00;;;;;20.82;58.15;100266.81;5002988;28;45240;-61
2022/11/28 03:48:48;;;;;;;;;8.00;6.75;;;;;20.83;58.16;100258.78;5002575;28;45246;-62
2022/11/28 03:51:15;;;;;;;;;8.75;7.75;;;;;20.82;58.45;100250.91;5003018;28;45331;-62
2022/11/28 03:54:03;;;;;;;;;8.75;7.75;;;;;20.83;58.40;100255.28;5019968;28;45340;-61
2022/11/28 03:56:39;;;;;;;;;8.75;8.50;;;;;20.83;58.21;100261.44;5019055;28;45291;-61
2022/11/28 03:59:19;;;;;;;;;8.25;7.00;;;;;20.82;58.54;100254.41;5007378;28;45242;-61
2022/11/28 04:02:23;;;;;;;;;6.50;6.50;;;;;20.82;58.04;100245.59;5018878;28;45343;-61
2022/11/28 04:04:54;;;;;;;;;7.00;5.75;;;;;20.82;58.27;100245.59;5018887;28;46498;-61
2022/11/28 04:07:31;;;;;;;;;6.50;5.50;;;;;20.82;58.04;100246.44;5017588;28;45533;-61
2022/11/28 04:10:10;;;;;;;;;6.50;6.00;;;;;20.82;58.22;100254.41;5003064;28;45252;-61
2022/11/28 04:13:06;;;;;;;;;4.50;4.50;;;;;20.81;58.17;100258.00;5003646;28;45463;-61
2022/11/28 04:15:44;;;;;;;;;7.25;5.50;;;;;20.82;58.02;100262.38;5004980;28;46628;-61
2022/11/28 04:18:22;;;;;;;;;6.25;6.25;;;;;20.82;57.88;100261.50;5018720;28;45265;-61
2022/11/28 04:20:59;;;;;;;;;8.50;4.75;;;;;20.81;57.98;100258.00;5019991;28;45309;-61
2022/11/28 04:23:24;;;;;;;;;7.00;6.25;;;;;20.81;57.94;100252.69;5002115;28;45498;-61
2022/11/28 04:26:11;;;;;;;;;6.00;6.00;;;;;20.82;57.80;100245.59;5002232;28;46016;-61
2022/11/28 04:28:37;;;;;;;;;4.25;4.00;;;;;20.81;57.67;100244.72;5018729;28;45269;-61
2022/11/28 04:31:03;;;;;;;;;6.00;6.00;;;;;20.81;57.89;100258.00;5001245;28;67614;-61
2022/11/28 04:33:29;;;;;;;;;7.00;6.50;;;;;20.81;58.04;100260.63;5002394;28;45225;-61
2022/11/28 04:35:55;;;;;;;;;6.25;5.00;;;;;20.81;57.92;100262.44;5018445;28;46308;-61
2022/11/28 04:38:20;;;;;;;;;7.00;7.00;;;;;20.82;58.26;100249.09;5001520;28;56826;-61
2022/11/28 04:40:55;;;;;;;;;6.25;6.00;;;;;20.82;58.11;100254.41;5001683;28;49270;-61
2022/11/28 04:43:27;;;;;;;;;8.25;6.00;;;;;20.83;58.09;100258.78;5002647;28;45261;-61
2022/11/28 04:45:54;;;;;;;;;8.00;6.00;;;;;20.82;57.72;100259.72;4986019;28;47158;-61
2022/11/28 04:48:20;;;;;;;;;6.50;5.00;;;;;20.82;58.05;100269.47;5018394;28;45260;-61
2022/11/28 04:51:13;;;;;;;;;8.00;6.00;;;;;20.81;57.79;100273.91;5017863;28;55326;-61
2022/11/28 04:53:46;;;;;;;;;7.50;5.50;;;;;20.81;58.07;100276.56;5018741;28;45607;-61
2022/11/28 04:56:15;;;;;;;;;7.00;6.00;;;;;20.80;58.34;100276.63;5002630;28;45217;-61
2022/11/28 04:58:42;;;;;;;;;9.00;8.00;;;;;20.80;57.89;100276.63;5015501;28;45238;-62
2022/11/28 05:01:09;;;;;;;;;5.00;5.00;;;;;20.80;57.86;100263.34;5018290;28;45476;-61
2022/11/28 05:03:34;;;;;;;;;7.75;5.50;;;;;20.80;57.96;100239.50;5002049;28;45363;-61
2022/11/28 05:06:00;;;;;;;;;8.50;4.50;;;;;20.80;58.14;100237.69;5018173;28;46242;-61
2022/11/28 05:08:25;;;;;;;;;7.00;6.75;;;;;20.81;57.92;100235.91;5018602;28;54763;-61
2022/11/28 05:10:50;;;;;;;;;8.75;7.00;;;;;20.82;57.83;100250.91;5017382;28;68150;-61
2022/11/28 05:13:16;;;;;;;;;4.75;4.75;;;;;20.81;58.13;100260.63;5018650;28;65386;-61
2022/11/28 05:15:42;;;;;;;;;5.00;5.00;;;;;20.80;58.14;100255.41;5018145;28;46307;-61
2022/11/28 05:18:07;;;;;;;;;5.50;4.50;;;;;20.81;57.72;100258.00;5019949;28;55324;-61
2022/11/28 05:20:32;;;;;;;;;7.75;5.25;;;;;20.82;58.14;100261.50;5021656;28;45223;-60
2022/11/28 05:22:58;;;;;;;;;6.00;6.00;;;;;20.82;57.99;100264.16;5021333;28;45490;-61
2022/11/28 05:25:23;;;;;;;;;5.25;5.25;;;;;20.81;58.03;100263.28;5001581;28;45272;-60
2022/11/28 05:27:49;;;;;;;;;7.00;4.25;;;;;20.82;57.84;100256.19;5033819;28;68839;-61
2022/11/28 05:30:14;;;;;;;;;6.00;4.00;;;;;20.82;57.80;100248.25;5020781;28;60930;-61
2022/11/28 05:32:39;;;;;;;;;7.50;7.50;;;;;20.81;57.60;100246.50;5022601;28;45415;-61
2022/11/28 05:35:05;;;;;;;;;6.00;6.00;;;;;20.81;57.74;100246.50;5021917;28;57485;-60
2022/11/28 05:37:31;;;;;;;;;5.75;5.75;;;;;20.81;57.55;100251.81;5021014;28;47076;-60
2022/11/28 05:39:56;;;;;;;;;6.00;4.50;;;;;20.81;57.84;100244.72;5022496;28;45296;-61
2022/11/28 05:42:21;;;;;;;;;6.50;4.25;;;;;20.80;57.47;100240.34;5021916;28;55665;-60
2022/11/28 05:44:47;;;;;;;;;6.25;5.00;;;;;20.81;57.65;100249.16;5021905;28;54929;-60
2022/11/28 05:47:14;;;;;;;;;3.50;3.50;;;;;20.81;58.15;100252.69;5020180;28;69990;-60
2022/11/28 05:49:40;;;;;;;;;5.25;5.25;;;;;20.80;58.30;100252.75;5021064;28;45363;-60
2022/11/28 05:52:05;;;;;;;;;5.00;4.00;;;;;20.80;58.03;100256.25;5021884;28;47485;-60
2022/11/28 05:54:31;;;;;;;;;6.00;6.00;;;;;20.80;58.38;100250.09;5020983;28;74071;-60
2022/11/28 05:56:56;;;;;;;;;6.00;5.00;;;;;20.80;58.51;100247.44;5020667;28;45580;-60
2022/11/28 05:59:21;;;;;;;;;5.00;4.00;;;;;20.79;58.72;100254.53;5020721;28;49727;-60
2022/11/28 06:01:47;;;;;;;;;6.00;5.00;;;;;20.79;58.75;100251.03;5021917;28;45377;-60
2022/11/28 06:04:14;;;;;;;;;4.50;3.50;;;;;20.80;58.35;100250.97;5022533;28;46141;-60
2022/11/28 06:06:39;;;;;;;;;8.50;6.00;;;;;20.81;58.75;100263.28;5003486;28;45324;-60
2022/11/28 06:09:04;;;;;;;;;6.50;5.25;;;;;20.81;58.73;100262.44;5020431;28;67768;-60
2022/11/28 06:11:30;;;;;;;;;4.75;4.00;;;;;20.80;58.53;100261.56;5019401;28;45474;-60
2022/11/28 06:13:56;;;;;;;;;4.00;4.00;;;;;20.82;59.04;100258.84;5019409;28;46291;-60
2022/11/28 06:16:23;;;;;;;;;7.00;6.00;;;;;20.82;58.62;100275.63;5018833;28;62416;-60
2022/11/28 06:18:53;;;;;;;;;7.25;5.00;;;;;20.82;58.78;100275.63;5020306;28;45309;-60
2022/11/28 06:21:18;;;;;;;;;2.75;2.75;;;;;20.83;59.13;100285.31;5021087;28;45427;-60
2022/11/28 06:23:43;;;;;;;;;5.75;4.00;;;;;20.83;59.17;100285.31;5021528;28;45325;-59
2022/11/28 06:26:11;;;;;;;;;7.00;6.00;;;;;20.82;58.95;100280.94;5018395;28;64240;-59
2022/11/28 06:28:36;;;;;;;;;4.50;4.00;;;;;20.86;59.09;100287.00;5021623;28;45293;-59
2022/11/28 06:31:02;;;;;;;;;7.25;6.75;;;;;20.87;59.12;100289.56;5020477;28;47969;-60
2022/11/28 06:33:27;;;;;;;;;6.25;6.00;;;;;20.87;58.93;100288.72;5019967;28;46039;-60
2022/11/28 06:36:00;;;;;;;;;5.00;5.00;;;;;20.88;59.25;100291.31;5002010;28;62773;-60
2022/11/28 06:38:25;;;;;;;;;5.75;4.50;;;;;20.88;59.54;100291.31;5020139;28;45457;-60
2022/11/28 06:40:55;;;;;;;;;8.00;6.00;;;;;20.91;59.18;100292.09;5020718;28;45235;-60
2022/11/28 06:43:20;;;;;;;;;6.00;6.00;;;;;20.91;59.63;100292.97;5020257;28;45550;-61
2022/11/28 06:45:46;;;;;;;;;8.50;5.50;;;;;20.92;59.68;100299.13;5019330;28;66400;-61
2022/11/28 06:48:11;;;;;;;;;7.50;6.00;;;;;20.92;59.50;100307.94;5020190;28;45324;-58
2022/11/28 06:50:36;;;;;;;;;6.50;4.75;;;;;20.93;59.33;100298.19;5020573;28;62801;-60
2022/11/28 06:53:02;;;;;;;;;7.25;5.50;;;;;20.94;59.35;100308.78;5018491;28;64155;-60
2022/11/28 06:55:28;;;;;;;;;6.00;5.00;;;;;20.94;59.91;100310.53;5017156;28;50121;-60
2022/11/28 06:57:54;;;;;;;;;8.00;5.00;;;;;20.96;59.69;100303.41;5003020;28;45316;-60
2022/11/28 07:00:19;;;;;;;;;4.75;4.75;;;;;20.96;59.95;100298.94;5018923;28;45481;-57
2022/11/28 07:02:44;;;;;;;;;6.00;5.75;;;;;20.97;59.73;100302.47;5020886;28;45181;-59
2022/11/28 07:05:10;;;;;;;;;7.75;5.75;;;;;20.97;59.58;100302.47;5019651;28;45262;-60
2022/11/28 07:07:35;;;;;;;;;6.75;4.00;;;;;20.98;60.03;100310.34;5020309;28;52989;-60
2022/11/28 07:10:01;;;;;;;;;5.50;5.25;;;;;20.99;59.60;100312.09;5020519;28;62864;-59
2022/11/28 07:12:26;;;;;;;;;8.00;6.00;;;;;21.00;60.16;100310.28;5021025;28;49673;-60
2022/11/28 07:14:52;;;;;;;;;6.00;4.00;;;;;20.99;60.21;100304.13;5020720;28;45325;-59
2022/11/28 07:17:17;;;;;;;;;8.00;5.00;;;;;21.00;59.91;100302.34;5003056;28;45316;-60
2022/11/28 07:19:43;;;;;;;;;4.50;4.50;;;;;21.00;59.92;100303.19;5020029;28;65898;-60
2022/11/28 07:22:10;;;;;;;;;3.50;3.00;;;;;21.00;60.03;100305.84;5019543;28;72854;-59
2022/11/28 07:24:35;;;;;;;;;6.00;6.00;;;;;20.99;60.22;100304.13;5019644;28;45370;-59
2022/11/28 07:27:01;;;;;;;;;8.00;5.00;;;;;21.00;60.24;100307.63;5020860;28;45307;-59
2022/11/28 07:29:34;;;;;;;;;6.75;6.75;;;;;21.00;60.06;100304.97;5018683;28;66784;-59
2022/11/28 07:31:59;;;;;;;;;6.00;5.75;;;;;21.00;59.85;100305.84;5019577;28;46961;-60
2022/11/28 07:34:25;;;;;;;;;5.00;4.75;;;;;21.00;60.62;100311.16;5019505;28;45365;-60
2022/11/28 07:36:50;;;;;;;;;5.00;5.00;;;;;20.99;60.32;100321.84;5018000;28;63675;-59
2022/11/28 07:39:16;;;;;;;;;6.50;6.50;;;;;21.00;60.34;100323.56;4986531;28;45618;-60
2022/11/28 07:41:41;;;;;;;;;6.75;5.75;;;;;20.98;60.07;100320.97;5020315;28;46149;-60
2022/11/28 07:44:09;;;;;;;;;5.25;5.25;;;;;20.98;59.11;100315.66;5018108;28;45315;-58
2022/11/28 07:46:34;;;;;;;;;6.00;5.25;;;;;20.78;55.67;100320.91;5019008;28;45270;-58
2022/11/28 07:49:00;;;;;;;;;7.00;5.50;;;;;20.41;54.13;100329.38;5002832;28;45367;-58
2022/11/28 07:51:27;;;;;;;;;8.00;6.25;;;;;20.00;53.78;100331.78;5018749;28;45300;-58
2022/11/28 07:53:53;;;;;;;;;5.75;5.00;;;;;19.66;52.90;100332.09;5019346;28;45355;-58
2022/11/28 07:56:23;;;;;;;;;9.50;6.25;;;;;19.34;53.38;100333.16;5018021;28;64657;-56
2022/11/28 07:58:49;;;;;;;;;8.75;7.25;;;;;19.06;53.22;100349.94;5015445;28;45422;-58
2022/11/28 08:01:16;;;;;;;;;9.50;8.50;;;;;18.85;53.95;100340.00;5013934;28;46411;-59
2022/11/28 08:03:43;;;;;;;;;5.50;5.25;;;;;18.78;55.59;100341.16;5016112;28;45398;-59
2022/11/28 08:06:09;;;;;;;;;7.00;6.00;;;;;18.92;56.63;100346.84;5019920;28;45334;-59
2022/11/28 08:08:34;;;;;;;;;7.00;5.00;;;;;19.09;57.53;100344.53;5016829;28;45323;-59
2022/11/28 08:11:00;;;;;;;;;10.25;7.00;;;;;19.26;57.95;100338.69;5018110;28;45248;-59
2022/11/28 08:13:26;;;;;;;;;5.75;4.75;;;;;19.42;57.96;100350.50;5017592;28;45772;-59
2022/11/28 08:15:52;;;;;;;;;9.00;5.00;;;;;19.57;57.97;100345.66;5018624;28;45462;-59
2022/11/28 08:18:17;;;;;;;;;9.00;7.25;;;;;19.68;58.25;100341.72;5018601;28;45576;-59
2022/11/28 08:20:42;;;;;;;;;6.50;6.50;;;;;19.79;58.31;100344.00;5018159;28;47984;-59
2022/11/28 08:23:08;;;;;;;;;5.50;5.25;;;;;19.88;58.07;100353.41;5014978;28;63743;-60
2022/11/28 08:25:33;;;;;;;;;10.00;7.25;;;;;19.98;58.16;100358.34;5015905;28;45429;-57
2022/11/28 08:27:59;;;;;;;;;10.00;7.00;;;;;20.04;58.27;100355.44;5018212;28;45576;-58
2022/11/28 08:30:24;;;;;;;;;9.50;5.50;;;;;20.12;58.09;100357.81;4999823;28;47183;-63
2022/11/28 08:32:50;;;;;;;;;7.00;7.00;;;;;20.19;58.12;100363.78;4997550;28;45487;-58
2022/11/28 08:35:15;;;;;;;;;5.75;5.75;;;;;20.24;58.09;100360.03;5032707;28;45513;-59
2022/11/28 08:37:41;;;;;;;;;8.25;6.00;;;;;20.30;57.98;100353.63;5018260;28;45389;-59
2022/11/28 08:40:07;;;;;;;;;9.00;6.00;;;;;20.36;58.08;100352.56;5017925;28;46927;-59
2022/11/28 08:42:32;;;;;;;;;9.25;6.00;;;;;20.40;58.00;100351.50;5001737;28;45348;-59
2022/11/28 08:44:58;;;;;;;;;5.50;5.00;;;;;20.43;58.07;100346.09;5001692;28;45359;-59
2022/11/28 08:47:23;;;;;;;;;5.50;5.00;;;;;20.48;58.28;100352.09;5000690;28;65122;-59
2022/11/28 08:49:48;;;;;;;;;9.00;6.50;;;;;20.51;57.83;100344.06;5018722;28;50752;-58
2022/11/28 08:52:14;;;;;;;;;8.25;6.50;;;;;20.54;58.04;100347.44;5018079;28;45331;-59
2022/11/28 08:54:40;;;;;;;;;7.25;5.25;;;;;20.56;57.91;100350.91;5021900;28;64033;-59
2022/11/28 08:57:05;;;;;;;;;6.00;6.00;;;;;20.58;58.15;100353.47;5005383;28;45299;-59
2022/11/28 08:59:31;;;;;;;;;7.75;5.75;;;;;20.62;57.83;100351.59;5021494;28;45457;-58
2022/11/28 09:01:56;;;;;;;;;10.00;6.00;;;;;20.63;57.98;100343.59;5022055;28;65173;-59
2022/11/28 09:04:22;;;;;;;;;8.00;6.25;;;;;20.65;57.93;100336.44;5021588;28;58752;-59
2022/11/28 09:06:48;;;;;;;;;4.25;3.50;;;;;20.66;58.17;100330.19;5004698;28;45568;-59
2022/11/28 09:09:13;;;;;;;;;8.50;6.00;;;;;20.69;58.11;100345.16;5022259;28;45642;-59
2022/11/28 09:11:39;;;;;;;;;10.75;7.50;;;;;20.70;58.14;100339.78;5020973;28;45264;-58
2022/11/28 09:14:05;;;;;;;;;5.50;4.25;;;;;20.71;58.15;100341.50;5022818;28;45264;-58
2022/11/28 09:16:30;;;;;;;;;8.00;6.50;;;;;20.73;58.13;100350.25;5022182;28;45170;-58
2022/11/28 09:18:58;;;;;;;;;10.25;6.00;;;;;20.73;57.91;100347.59;5019879;28;72455;-59
2022/11/28 09:21:24;;;;;;;;;7.75;6.50;;;;;20.75;58.11;100339.59;5019887;28;45505;-59
2022/11/28 09:23:49;;;;;;;;;12.00;9.50;;;;;20.76;58.32;100350.16;5021392;28;59560;-59
2022/11/28 09:26:17;;;;;;;;;7.00;7.00;;;;;20.77;58.23;100345.72;5021484;28;45473;-59
2022/11/28 09:28:42;;;;;;;;;8.75;7.25;;;;;20.77;58.25;100346.56;5013330;28;45327;-59
2022/11/28 09:31:08;;;;;;;;;8.25;7.00;;;;;20.82;58.12;100351.69;5020909;28;45165;-59
2022/11/28 09:33:34;;;;;;;;;7.00;6.25;;;;;20.82;58.03;100355.19;5004589;28;45371;-60
2022/11/28 09:36:06;;;;;;;;;9.50;8.25;;;;;20.83;57.83;100354.28;5020994;28;45283;-60
2022/11/28 09:38:31;;;;;;;;;8.25;7.25;;;;;20.84;58.15;100361.28;5020841;28;46053;-58
2022/11/28 09:40:57;;;;;;;;;10.00;8.75;;;;;20.86;57.78;100362.13;5020969;28;45461;-59
2022/11/28 09:43:30;;;;;;;;;12.00;9.00;;;;;20.87;58.21;100363.84;5021892;28;45396;-58
2022/11/28 09:45:58;;;;;;;;;9.25;8.00;;;;;20.87;58.15;100366.50;5019938;28;45407;-60
2022/11/28 09:48:33;;;;;;;;;13.75;10.00;;;;;20.87;58.31;100366.50;5020742;28;45312;-60
2022/11/28 09:51:27;;;;;;;;;13.25;8.75;;;;;20.87;57.98;100369.16;5021602;28;45440;-60
2022/11/28 09:54:10;;;;;;;;;10.25;7.50;;;;;20.87;58.17;100363.84;5027087;28;45595;-60
2022/11/28 09:56:35;;;;;;;;;8.00;7.00;;;;;20.88;58.38;100360.28;5020837;28;45369;-60
2022/11/28 09:59:03;;;;;;;;;12.50;10.25;;;;;20.89;58.40;100361.13;5002512;28;67830;-60
2022/11/28 10:01:32;;;;;;;;;8.50;8.00;;;;;20.91;57.85;100353.09;5020473;28;45427;-60
2022/11/28 10:04:24;;;;;;;;;7.75;6.75;;;;;20.91;57.76;100363.72;5020992;28;45351;-58
2022/11/28 10:07:01;;;;;;;;;9.50;7.25;;;;;20.91;58.05;100369.03;5020259;28;45364;-59
2022/11/28 10:09:35;;;;;;;;;8.75;8.75;;;;;20.89;58.23;100359.34;5012565;28;45423;-59
2022/11/28 10:12:25;;;;;;;;;9.25;9.00;;;;;20.92;58.03;100357.50;5020357;28;45257;-58
2022/11/28 10:15:21;;;;;;;;;14.25;9.00;;;;;20.92;58.23;100361.00;5011892;28;45550;-58
2022/11/28 10:18:08;;;;;;;;;9.50;8.25;;;;;20.92;58.15;100361.00;5021714;28;45319;-59
2022/11/28 10:20:38;;;;;;;;;8.00;8.00;;;;;20.93;58.08;100365.38;5020973;28;45477;-59
2022/11/28 10:23:14;;;;;;;;;14.25;10.75;;;;;20.94;57.79;100375.09;4987126;28;45391;-59
2022/11/28 10:25:42;;;;;;;;;10.50;6.75;;;;;20.95;58.07;100370.66;5020509;28;45343;-59
2022/11/28 10:28:15;;;;;;;;;8.75;8.75;;;;;20.96;57.75;100375.03;5020989;28;47166;-59
2022/11/28 10:30:42;;;;;;;;;11.25;8.25;;;;;20.97;58.16;100369.66;5020223;28;46187;-59
2022/11/28 10:33:13;;;;;;;;;11.75;8.00;;;;;20.98;57.98;100367.88;5021279;28;45229;-59
2022/11/28 10:35:47;;;;;;;;;9.50;9.00;;;;;20.98;58.43;100370.53;5020091;28;45396;-59
2022/11/28 10:38:13;;;;;;;;;10.00;8.00;;;;;20.98;58.09;100370.53;5003343;28;45451;-60
2022/11/28 10:40:54;;;;;;;;;7.75;7.75;;;;;20.99;57.95;100366.94;5020975;28;45462;-60
2022/11/28 10:43:33;;;;;;;;;11.25;9.75;;;;;20.99;57.94;100357.19;5021308;28;45458;-58
2022/11/28 10:46:23;;;;;;;;;11.50;9.00;;;;;21.00;58.00;100363.34;5021284;28;45398;-57
2022/11/28 10:48:54;;;;;;;;;9.25;8.00;;;;;21.02;58.02;100367.66;4984512;28;45262;-59
2022/11/28 10:51:50;;;;;;;;;7.00;6.25;;;;;21.03;58.02;100356.16;5019424;28;48404;-59
2022/11/28 10:54:36;;;;;;;;;9.00;8.00;;;;;21.03;57.89;100355.28;5019758;28;45403;-59
2022/11/28 10:57:16;;;;;;;;;8.75;8.75;;;;;21.05;57.90;100361.41;5019957;28;45342;-60
2022/11/28 11:00:13;;;;;;;;;10.50;8.50;;;;;21.07;56.52;100359.53;5019115;28;45403;-59
2022/11/28 11:02:54;;;;;;;;;10.50;10.25;;;;;21.01;54.71;100351.81;5019670;28;45406;-59
2022/11/28 11:05:32;;;;;;;;;6.00;6.00;;;;;20.91;53.36;100358.41;5020574;28;45241;-55
2022/11/28 11:07:58;;;;;;;;;10.00;6.50;;;;;20.77;53.19;100348.38;5019143;28;45350;-58
2022/11/28 11:10:37;;;;;;;;;6.50;5.50;;;;;20.66;52.89;100354.06;5019246;28;45645;-54
2022/11/28 11:13:23;;;;;;;;;8.25;6.00;;;;;20.53;52.61;100353.69;5015628;28;45296;-57
2022/11/28 11:16:05;;;;;;;;;6.50;6.25;;;;;20.43;52.77;100362.00;5021845;28;45341;-57
2022/11/28 11:18:45;;;;;;;;;5.75;5.75;;;;;20.35;52.67;100372.91;5017554;28;45347;-50
2022/11/28 11:21:20;;;;;;;;;7.00;5.00;;;;;20.27;52.66;100382.91;5019434;28;46367;-50
2022/11/28 11:23:46;;;;;;;;;4.25;4.00;;;;;20.19;52.43;100380.53;5020516;28;45399;-53
2022/11/28 11:26:29;;;;;;;;;4.75;4.75;;;;;20.12;51.93;100386.97;5020406;28;45900;-55
2022/11/28 11:28:54;;;;;;;;;4.00;4.00;;;;;20.04;51.71;100381.94;5019344;28;45327;-55
2022/11/28 11:31:22;;;;;;;;;2.75;2.75;;;;;19.98;51.59;100370.69;5020258;28;45237;-56
2022/11/28 11:34:11;;;;;;;;;4.50;3.75;;;;;19.91;51.38;100364.75;5019866;28;46564;-56
2022/11/28 11:36:37;;;;;;;;;8.75;5.00;;;;;19.84;51.66;100357.94;5016306;28;45530;-57